»·PEaware :: DAL212 KBUR-KLAS

DAL212 :: KBUR-KLAS

FLIGHT INFORMATION

Flight Status: Arrived
Operator:
Delta Air Lines
More flights by this operator :: More flights under this callsign
Pilot: Darrin K. (10192)
Aircraft: BOEING 737-400
(B734)
More flights by this aircraft type
Origin: KBUR Bob Hope-Burbank
United States
Destination: KLAS McCarran Intl
United States
More flights between these airports :: More routes between these airports
Route: SLAPP1 MISEN KEPEC6
File this flight plan on PilotEdge
Remarks:
Altitude:
(Current/Filed)
310ft
Speed:
(Current/Filed)
400kts
Departed: 06-Dec-17 06:06 PM
Arrived: 06-Dec-17 06:50 PM
Distance/Time
Traveled:
194nm/0:44
Distance/Time
To Go:
Arrived

Flight Plot

Page will automatically refresh every two minutes.

Flight plan parsing failed; only flown route is shown


Map Options




Map Legend


Flown Route
Filed Route
Departure Airport
Arrival Airport
Navaid (VOR, NDB)
Fix

Horizontal Profiles

Position Reports

Time Latitude Longitude Heading Altitude Ground
Speed
06-Dec-17 17:31 34.196769 -118.351470 179 784ft 0kts
06-Dec-17 17:32 34.196769 -118.351470 179 784ft 0kts
06-Dec-17 17:33 34.196769 -118.351470 179 784ft 0kts
06-Dec-17 17:34 34.196769 -118.351470 179 784ft 0kts
06-Dec-17 17:37 34.196776 -118.351465 179 784ft 0kts
06-Dec-17 17:38 34.196776 -118.351465 179 784ft 0kts
06-Dec-17 17:39 34.196776 -118.351465 179 784ft 0kts
06-Dec-17 17:40 34.196776 -118.351465 179 784ft 0kts
06-Dec-17 17:41 34.196776 -118.351465 179 784ft 0kts
06-Dec-17 17:42 34.196776 -118.351465 179 784ft 0kts
06-Dec-17 17:44 34.196776 -118.351465 179 784ft 0kts
06-Dec-17 17:45 34.196776 -118.351465 179 784ft 0kts
06-Dec-17 17:46 34.196776 -118.351465 179 784ft 0kts
06-Dec-17 17:47 34.196776 -118.351465 179 784ft 0kts
06-Dec-17 17:48 34.196776 -118.351465 179 784ft 0kts
06-Dec-17 17:49 34.196776 -118.351465 179 784ft 0kts
06-Dec-17 17:50 34.196776 -118.351465 179 784ft 0kts
06-Dec-17 17:50 34.196776 -118.351465 179 784ft 0kts
06-Dec-17 17:52 34.196776 -118.351465 179 784ft 0kts
06-Dec-17 17:52 34.196776 -118.351465 179 784ft 0kts
06-Dec-17 17:54 34.196776 -118.351465 179 784ft 0kts
06-Dec-17 17:55 34.196776 -118.351465 179 784ft 0kts
06-Dec-17 17:55 34.196776 -118.351465 179 784ft 0kts
06-Dec-17 17:57 34.196776 -118.351465 179 784ft 0kts
06-Dec-17 17:57 34.196776 -118.351465 179 784ft 0kts
06-Dec-17 17:58 34.196776 -118.351465 179 784ft 0kts
06-Dec-17 17:59 34.196776 -118.351465 179 784ft 0kts
06-Dec-17 18:00 34.196776 -118.351465 179 784ft 0kts
06-Dec-17 18:01 34.197070 -118.351644 95 784ft 6kts
06-Dec-17 18:02 34.197077 -118.351709 90 784ft 1kts
06-Dec-17 18:03 34.197653 -118.350010 351 784ft 10kts
06-Dec-17 18:04 34.198826 -118.354154 271 784ft 18kts
06-Dec-17 18:05 34.203380 -118.356595 346 784ft 22kts
06-Dec-17 18:06 34.209924 -118.358432 348 784ft 23kts
06-Dec-17 18:07 34.211660 -118.359058 316 784ft 0kts
06-Dec-17 18:08 34.211660 -118.359058 316 784ft 0kts
06-Dec-17 18:09 34.211660 -118.359058 316 784ft 0kts
06-Dec-17 18:10 34.211110 -118.360119 167 784ft 0kts
06-Dec-17 18:11 34.193584 -118.355280 168 800ft 144kts
06-Dec-17 18:12 34.156279 -118.371930 221 1276ft 164kts
06-Dec-17 18:13 34.121050 -118.409746 221 3079ft 188kts
06-Dec-17 18:14 34.108680 -118.467124 328 5109ft 230kts
06-Dec-17 18:15 34.166044 -118.435720 42 7102ft 269kts
06-Dec-17 18:16 34.233812 -118.403271 11 9017ft 268kts
06-Dec-17 18:17 34.309037 -118.385799 12 11105ft 304kts
06-Dec-17 18:18 34.395990 -118.362868 20 13686ft 330kts
06-Dec-17 18:19 34.476559 -118.309509 52 16350ft 348kts
06-Dec-17 18:20 34.532123 -118.211101 53 18879ft 359kts
06-Dec-17 18:21 34.588665 -118.110813 57 21150ft 370kts
06-Dec-17 18:22 34.635435 -117.997606 76 22637ft 391kts
06-Dec-17 18:23 34.672867 -117.867364 72 23732ft 423kts
06-Dec-17 18:24 34.713888 -117.730726 69 25827ft 425kts
06-Dec-17 18:25 34.751186 -117.606164 66 29139ft 378kts
06-Dec-17 18:26 34.787070 -117.485802 65 30034ft 393kts
06-Dec-17 18:27 34.824621 -117.359201 65 31126ft 395kts
06-Dec-17 18:28 34.862408 -117.231243 66 31155ft 427kts
06-Dec-17 18:29 34.903728 -117.090788 66 31194ft 448kts
06-Dec-17 18:30 34.945547 -116.947949 66 31190ft 446kts
06-Dec-17 18:31 34.987055 -116.805514 66 31192ft 447kts
06-Dec-17 18:32 35.028148 -116.663150 66 31218ft 447kts
06-Dec-17 18:33 35.069500 -116.518996 67 28339ft 446kts
06-Dec-17 18:34 35.115355 -116.385929 41 25214ft 430kts
06-Dec-17 18:35 35.204414 -116.305997 34 24121ft 415kts
06-Dec-17 18:36 35.297267 -116.217540 35 24434ft 435kts
06-Dec-17 18:37 35.389678 -116.128733 35 24623ft 390kts
06-Dec-17 18:38 35.470845 -116.050631 34 23815ft 366kts
06-Dec-17 18:39 35.546878 -115.977240 34 21618ft 350kts
06-Dec-17 18:40 35.623176 -115.903418 36 19364ft 351kts
06-Dec-17 18:41 35.698378 -115.830444 34 17623ft 337kts
06-Dec-17 18:42 35.769113 -115.761668 33 16175ft 314kts
06-Dec-17 18:43 35.833597 -115.696803 48 14721ft 297kts
06-Dec-17 18:44 35.839335 -115.597926 91 13446ft 284kts
06-Dec-17 18:45 35.831869 -115.507674 91 11907ft 266kts
06-Dec-17 18:46 35.827929 -115.417945 91 10047ft 262kts
06-Dec-17 18:47 35.824534 -115.335542 91 8439ft 255kts
06-Dec-17 18:48 35.821101 -115.252340 91 6820ft 248kts
06-Dec-17 18:49 35.858246 -115.200289 1 5385ft 227kts
06-Dec-17 18:50 35.910459 -115.200179 1 5020ft 194kts
06-Dec-17 18:51 35.959538 -115.209399 341 4997ft 197kts
06-Dec-17 18:52 36.005442 -115.206661 11 5038ft 175kts
06-Dec-17 18:53 36.041401 -115.190711 28 3609ft 143kts
06-Dec-17 18:54 36.071279 -115.172693 25 2323ft 133kts
06-Dec-17 18:55 36.093947 -115.159709 27 2148ft 29kts

Navigation Log

Ident Type
Flight plan parsing failed, navigation log unavailable